Time;durP1;ratioP1;P1;durP2;ratioP2;P2;SDS_P1;SDS_P2;PMS_P1;PMS_P2;Temp;Humidity;BMP_temperature;BMP_pressure;BME280_temperature;BME280_humidity;BME280_pressure;Samples;Min_cycle;Max_cycle;Signal;HPM_P1;HPM_P2
2024/04/08 00:00:41;;;;;;;10.70;6.70;;;;;;;9.87;70.95;100072.41;106657;1266;67968;-38
2024/04/08 00:03:08;;;;;;;11.60;7.00;;;;;;;9.85;70.97;100067.92;106699;1267;72690;-38
2024/04/08 00:05:36;;;;;;;11.30;7.20;;;;;;;9.83;71.19;100065.08;106611;1264;200406;-38
2024/04/08 00:08:04;;;;;;;10.90;6.50;;;;;;;9.82;71.34;100064.58;106812;1264;60044;-38
2024/04/08 00:10:32;;;;;;;10.50;6.50;;;;;;;9.81;71.33;100067.25;106786;1264;71910;-38
2024/04/08 00:12:59;;;;;;;11.20;7.20;;;;;;;9.78;71.26;100063.68;106799;1262;67609;-38
2024/04/08 00:15:27;;;;;;;11.50;7.00;;;;;;;9.76;71.32;100063.14;106808;1264;71263;-38
2024/04/08 00:17:54;;;;;;;10.60;6.40;;;;;;;9.79;71.24;100061.85;106848;1263;60429;-38
2024/04/08 00:20:21;;;;;;;12.60;7.30;;;;;;;9.83;71.17;100068.23;106827;1263;60345;-38
2024/04/08 00:22:54;;;;;;;10.90;6.50;;;;;;;9.82;71.36;100066.06;106845;1264;73843;-38
2024/04/08 00:25:21;;;;;;;13.60;7.30;;;;;;;9.80;71.70;100066.23;106859;1263;66669;-38
2024/04/08 00:27:48;;;;;;;12.50;6.80;;;;;;;9.79;71.89;100066.88;106844;1267;72659;-38
2024/04/08 00:30:18;;;;;;;13.60;7.40;;;;;;;9.78;71.97;100067.84;106812;1266;60904;-39
2024/04/08 00:32:45;;;;;;;12.50;6.90;;;;;;;9.76;71.92;100067.30;106864;1262;59338;-38
2024/04/08 00:35:13;;;;;;;11.70;6.90;;;;;;;9.73;71.88;100069.08;106796;1268;73823;-38
2024/04/08 00:37:40;;;;;;;11.90;6.20;;;;;;;9.76;71.95;100067.23;106877;1264;67605;-38
2024/04/08 00:40:08;;;;;;;12.50;6.30;;;;;;;9.79;71.94;100066.43;106790;1266;70425;-38
2024/04/08 00:42:36;;;;;;;12.00;6.80;;;;;;;9.80;71.89;100063.89;106832;1262;60922;-38
2024/04/08 00:45:04;;;;;;;10.80;7.00;;;;;;;9.78;72.10;100061.58;106829;1263;59588;-38
2024/04/08 00:47:31;;;;;;;12.40;6.70;;;;;;;9.77;72.22;100062.40;106926;1262;73836;-38
2024/04/08 00:49:59;;;;;;;10.60;6.50;;;;;;;9.75;72.20;100061.04;106840;1263;67596;-39
2024/04/08 00:52:27;;;;;;;10.60;6.30;;;;;;;9.74;72.24;100060.13;106918;1264;72671;-38
2024/04/08 00:54:54;;;;;;;10.80;6.70;;;;;;;9.72;72.35;100053.34;106845;1264;61679;-38
2024/04/08 00:57:21;;;;;;;12.40;6.00;;;;;;;9.74;72.34;100055.95;106818;1264;60453;-38
2024/04/08 00:59:49;;;;;;;9.60;6.20;;;;;;;9.77;72.30;100054.52;106921;1264;72735;-39
2024/04/08 01:02:17;;;;;;;11.80;6.80;;;;;;;9.78;72.36;100057.71;106852;1263;67596;-39
2024/04/08 01:04:44;;;;;;;10.50;6.40;;;;;;;9.76;72.45;100054.12;106853;1264;71387;-39
2024/04/08 01:07:11;;;;;;;10.40;6.20;;;;;;;9.75;72.65;100057.63;106794;1264;59602;-39
2024/04/08 01:09:39;;;;;;;11.30;6.30;;;;;;;9.74;72.90;100059.59;106853;1263;60320;-38
2024/04/08 01:12:08;;;;;;;9.90;6.10;;;;;;;9.74;72.89;100060.19;106830;1264;73848;-38
2024/04/08 01:14:35;;;;;;;15.60;6.30;;;;;;;9.76;72.86;100060.73;106793;1263;66653;-38
2024/04/08 01:17:03;;;;;;;8.90;5.50;;;;;;;9.81;72.97;100060.84;107260;1256;73144;-39
2024/04/08 01:19:31;;;;;;;9.40;5.90;;;;;;;9.83;73.13;100058.89;107297;1260;60382;-39
2024/04/08 01:21:59;;;;;;;11.00;6.20;;;;;;;9.84;73.03;100059.75;107209;1257;59312;-38
2024/04/08 01:24:27;;;;;;;8.10;5.40;;;;;;;9.84;72.97;100056.82;107130;1256;73923;-38
2024/04/08 01:26:55;;;;;;;9.30;5.70;;;;;;;9.84;72.96;100060.60;107152;1255;67877;-38
2024/04/08 01:29:23;;;;;;;9.00;5.80;;;;;;;9.83;73.00;100061.89;107170;1257;72694;-38
2024/04/08 01:31:50;;;;;;;14.40;6.50;;;;;;;9.81;73.01;100065.95;107369;1256;60444;-38
2024/04/08 01:34:18;;;;;;;12.60;5.80;;;;;;;9.82;72.85;100069.08;107224;1254;60270;-38
2024/04/08 01:36:45;;;;;;;10.40;6.10;;;;;;;9.86;72.73;100063.49;107160;1256;72528;-38
2024/04/08 01:39:12;;;;;;;10.90;6.10;;;;;;;9.88;72.65;100061.52;107253;1257;68238;-39
2024/04/08 01:41:40;;;;;;;13.70;6.20;;;;;;;9.87;72.63;100060.90;107385;1257;72706;-39
2024/04/08 01:44:07;;;;;;;11.50;6.00;;;;;;;9.87;72.64;100061.43;107272;1260;60544;-38
2024/04/08 01:46:35;;;;;;;11.00;6.00;;;;;;;9.86;72.59;100063.95;107256;1257;60435;-38
2024/04/08 01:49:03;;;;;;;12.30;6.30;;;;;;;9.83;72.55;100060.52;107340;1260;74176;-39
2024/04/08 01:51:30;;;;;;;9.90;5.80;;;;;;;9.80;72.53;100063.81;106531;1257;1003108;-39
2024/04/08 01:53:58;;;;;;;8.90;5.20;;;;;;;9.82;72.45;100061.50;107281;1257;71097;-39
2024/04/08 01:56:25;;;;;;;8.00;5.10;;;;;;;9.86;72.43;100057.38;107201;1257;60223;-39
2024/04/08 01:58:52;;;;;;;7.80;4.70;;;;;;;9.85;72.69;100047.98;107251;1257;60345;-38
2024/04/08 02:01:20;;;;;;;10.10;5.70;;;;;;;9.84;72.85;100047.38;107253;1257;73864;-38
2024/04/08 02:03:47;;;;;;;9.80;5.50;;;;;;;9.82;72.80;100049.65;107258;1257;65614;-39
2024/04/08 02:06:14;;;;;;;9.40;5.10;;;;;;;9.79;72.68;100053.95;107220;1257;72832;-38
2024/04/08 02:08:42;;;;;;;9.00;4.30;;;;;;;9.76;72.75;100052.17;107227;1260;60431;-38
2024/04/08 02:11:09;;;;;;;8.60;5.40;;;;;;;9.78;72.64;100046.98;107308;1255;60322;-38
2024/04/08 02:13:37;;;;;;;7.40;4.70;;;;;;;9.84;72.32;100050.00;107254;1257;73846;-38
2024/04/08 02:16:07;;;;;;;12.20;5.20;;;;;;;9.83;72.19;100048.04;107307;1260;66620;-38
2024/04/08 02:18:34;;;;;;;9.60;5.40;;;;;;;9.81;72.13;100053.80;107254;1257;71453;-39
2024/04/08 02:21:04;;;;;;;10.40;5.40;;;;;;;9.80;72.06;100057.38;107286;1257;60424;-38
2024/04/08 02:23:31;;;;;;;8.40;5.10;;;;;;;9.77;72.01;100058.23;107322;1257;60204;-39
2024/04/08 02:26:00;;;;;;;8.70;5.00;;;;;;;9.72;71.98;100058.30;107238;1255;73862;-38
2024/04/08 02:28:27;;;;;;;8.60;5.00;;;;;;;9.70;72.00;100059.61;107268;1257;67624;-38
2024/04/08 02:31:00;;;;;;;9.20;5.10;;;;;;;9.65;72.06;100054.66;107253;1257;72681;-38
2024/04/08 02:33:27;;;;;;;6.80;5.00;;;;;;;9.67;71.97;100058.21;107278;1255;60416;-39
2024/04/08 02:36:04;;;;;;;10.20;5.20;;;;;;;9.71;71.72;100060.65;107351;1257;60284;-39
2024/04/08 02:38:32;;;;;;;7.80;4.80;;;;;;;9.69;71.78;100059.58;107263;1257;72559;-39
2024/04/08 02:41:00;;;;;;;8.50;5.70;;;;;;;9.67;71.80;100055.12;107373;1256;68162;-38
2024/04/08 02:43:28;;;;;;;8.80;5.10;;;;;;;9.64;71.83;100056.93;107307;1257;72684;-39
2024/04/08 02:45:55;;;;;;;9.00;4.90;;;;;;;9.60;71.89;100058.59;107265;1257;60543;-38
2024/04/08 02:48:23;;;;;;;8.30;4.60;;;;;;;9.57;71.88;100056.17;107283;1257;60264;-38
2024/04/08 02:50:51;;;;;;;9.20;4.70;;;;;;;9.54;72.27;100057.45;107326;1257;73832;-39
2024/04/08 02:53:20;;;;;;;8.70;4.50;;;;;;;9.55;72.15;100053.36;107327;1257;67545;-38
2024/04/08 02:55:47;;;;;;;9.30;4.40;;;;;;;9.56;72.18;100056.58;107225;1260;71425;-39
2024/04/08 02:58:14;;;;;;;9.70;4.40;;;;;;;9.52;72.33;100056.94;107301;1256;60919;-38
2024/04/08 03:00:42;;;;;;;7.50;4.90;;;;;;;9.50;72.35;100061.31;107267;1254;60309;-38
2024/04/08 03:03:09;;;;;;;9.80;4.80;;;;;;;9.48;72.34;100063.41;107168;1257;72600;-38
2024/04/08 03:05:37;;;;;;;8.60;4.60;;;;;;;9.44;72.22;100061.45;107216;1257;66934;-38
2024/04/08 03:08:07;;;;;;;10.90;4.70;;;;;;;9.39;72.28;100062.52;107154;1257;72664;-38
2024/04/08 03:10:35;;;;;;;8.20;4.40;;;;;;;9.36;72.41;100061.54;107309;1256;61971;-38
2024/04/08 03:13:02;;;;;;;7.60;3.90;;;;;;;9.38;72.30;100059.84;107192;1257;60338;-38
2024/04/08 03:15:29;;;;;;;7.20;4.30;;;;;;;9.42;72.17;100061.98;107175;1255;73902;-38
2024/04/08 03:17:57;;;;;;;8.20;4.30;;;;;;;9.41;72.22;100063.19;107149;1257;67926;-38
2024/04/08 03:20:24;;;;;;;8.90;4.20;;;;;;;9.39;72.33;100064.05;107133;1258;72721;-38
2024/04/08 03:22:51;;;;;;;8.50;4.40;;;;;;;9.36;72.48;100064.11;107310;1260;60523;-38
2024/04/08 03:25:19;;;;;;;9.10;4.80;;;;;;;9.34;72.47;100069.06;107333;1255;60319;-38
2024/04/08 03:27:46;;;;;;;10.00;4.50;;;;;;;9.31;72.32;100072.11;107262;1257;73965;-38
2024/04/08 03:30:13;;;;;;;7.00;4.40;;;;;;;9.28;72.42;100071.46;107267;1257;66606;-38
2024/04/08 03:32:41;;;;;;;8.50;4.40;;;;;;;9.31;72.88;100077.59;107250;1257;72667;-38
2024/04/08 03:35:08;;;;;;;8.30;4.60;;;;;;;9.36;73.12;100075.16;107286;1257;60380;-38
2024/04/08 03:37:36;;;;;;;8.60;4.10;;;;;;;9.38;73.24;100078.48;107236;1255;60181;-38
2024/04/08 03:40:04;;;;;;;8.30;4.80;;;;;;;9.38;73.20;100074.54;107223;1257;73870;-38
2024/04/08 03:42:32;;;;;;;6.60;3.80;;;;;;;9.40;73.56;100072.41;107356;1256;66296;-38
2024/04/08 03:44:59;;;;;;;7.60;4.50;;;;;;;9.41;73.41;100070.70;107151;1257;72656;-38
2024/04/08 03:47:27;;;;;;;10.60;4.80;;;;;;;9.41;73.36;100068.29;107254;1260;60505;-37
2024/04/08 03:49:54;;;;;;;7.60;5.00;;;;;;;9.41;73.44;100066.52;107283;1257;60428;-37
2024/04/08 03:52:21;;;;;;;9.60;4.60;;;;;;;9.46;73.51;100069.55;107240;1258;73902;-37
2024/04/08 03:54:49;;;;;;;8.00;4.90;;;;;;;9.53;73.57;100070.48;107283;1256;66891;-38
2024/04/08 03:57:16;;;;;;;8.40;4.30;;;;;;;9.56;73.88;100069.19;107214;1257;72663;-37
2024/04/08 03:59:46;;;;;;;9.40;4.80;;;;;;;9.57;74.13;100064.30;107234;1257;61260;-38
2024/04/08 04:02:14;;;;;;;9.30;5.10;;;;;;;9.61;74.48;100063.09;107264;1256;62165;-37
2024/04/08 04:04:42;;;;;;;8.50;4.80;;;;;;;9.63;74.41;100069.13;107259;1257;73434;-38
2024/04/08 04:07:09;;;;;;;7.70;4.50;;;;;;;9.64;74.33;100066.77;107308;1257;66350;-38
2024/04/08 04:09:37;;;;;;;7.70;4.30;;;;;;;9.65;74.47;100068.66;107273;1257;72678;-38
2024/04/08 04:12:06;;;;;;;11.50;6.10;;;;;;;9.73;74.23;100075.33;107202;1256;61307;-38
2024/04/08 04:14:34;;;;;;;10.50;5.70;;;;;;;9.77;74.35;100071.38;107154;1257;61119;-38
2024/04/08 04:17:01;;;;;;;8.80;4.90;;;;;;;9.84;74.62;100079.74;107226;1257;73776;-38
2024/04/08 04:19:31;;;;;;;7.90;5.00;;;;;;;9.87;74.69;100079.38;107170;1257;67761;-38
2024/04/08 04:21:59;;;;;;;9.90;4.90;;;;;;;9.91;74.78;100085.25;107223;1257;72729;-38
2024/04/08 04:24:26;;;;;;;7.60;4.80;;;;;;;9.96;74.86;100083.38;107216;1257;60769;-38
2024/04/08 04:26:54;;;;;;;8.60;5.20;;;;;;;10.01;74.65;100084.24;107302;1257;61596;-38
2024/04/08 04:29:21;;;;;;;8.20;4.80;;;;;;;10.10;74.51;100085.68;107271;1261;75123;-38
2024/04/08 04:31:49;;;;;;;9.20;5.00;;;;;;;10.20;74.24;100086.67;107255;1257;67600;-38
2024/04/08 04:34:16;;;;;;;11.30;5.60;;;;;;;10.25;74.28;100091.39;107241;1257;71463;-38
2024/04/08 04:36:45;;;;;;;10.90;6.70;;;;;;;10.29;74.22;100092.98;107215;1257;60900;-38
2024/04/08 04:39:12;;;;;;;11.10;6.40;;;;;;;10.34;74.28;100095.09;107311;1258;61116;-38
2024/04/08 04:41:39;;;;;;;11.20;6.70;;;;;;;10.38;74.17;100094.44;107247;1257;73410;-38
2024/04/08 04:44:07;;;;;;;10.60;6.50;;;;;;;10.40;74.15;100094.05;107257;1256;67568;-38
2024/04/08 04:46:34;;;;;;;13.10;6.50;;;;;;;10.49;73.84;100094.08;107224;1256;71821;-38
2024/04/08 04:49:01;;;;;;;11.90;6.00;;;;;;;10.59;73.68;100097.80;107263;1257;61197;-38
2024/04/08 04:51:29;;;;;;;11.40;6.80;;;;;;;10.66;73.61;100098.86;107253;1257;61291;-38
2024/04/08 04:53:57;;;;;;;12.30;7.10;;;;;;;10.71;73.57;100100.71;107361;1260;73647;-38
2024/04/08 04:56:24;;;;;;;11.10;7.00;;;;;;;10.76;73.38;100102.24;107276;1257;67638;-38
2024/04/08 04:58:52;;;;;;;12.20;7.20;;;;;;;10.78;73.13;100104.16;107221;1257;72690;-38
2024/04/08 05:01:20;;;;;;;12.00;6.80;;;;;;;10.81;72.90;100105.66;107291;1261;61227;-38
2024/04/08 05:03:47;;;;;;;12.60;7.20;;;;;;;10.83;72.77;100108.59;107258;1257;61205;-38
2024/04/08 05:06:16;;;;;;;16.00;8.20;;;;;;;10.90;72.79;100106.94;107283;1260;73477;-37
2024/04/08 05:08:43;;;;;;;12.00;7.20;;;;;;;11.01;72.61;100110.89;107265;1256;66476;-38
2024/04/08 05:11:11;;;;;;;16.00;8.20;;;;;;;11.00;72.59;100104.33;107231;1256;72681;-37
2024/04/08 05:13:38;;;;;;;14.10;8.20;;;;;;;11.07;72.56;100110.45;107335;1257;61288;-37
2024/04/08 05:16:06;;;;;;;11.10;7.80;;;;;;;11.09;72.66;100110.26;107319;1257;61247;-38
2024/04/08 05:18:33;;;;;;;13.60;8.10;;;;;;;11.10;72.72;100107.03;107287;1257;73668;-38
2024/04/08 05:21:00;;;;;;;10.70;7.10;;;;;;;11.10;73.01;100108.66;107284;1257;66300;-37
2024/04/08 05:23:28;;;;;;;13.60;7.10;;;;;;;11.16;73.14;100104.26;107251;1258;72706;-38
2024/04/08 05:25:55;;;;;;;13.40;7.80;;;;;;;11.26;73.30;100107.50;107217;1257;61304;-38
2024/04/08 05:28:23;;;;;;;12.70;7.30;;;;;;;11.32;73.45;100103.02;107260;1257;61198;-37
2024/04/08 05:30:52;;;;;;;13.20;7.20;;;;;;;11.39;73.38;100096.77;107244;1257;74623;-38
2024/04/08 05:33:20;;;;;;;14.10;8.10;;;;;;;11.43;73.26;100093.46;107260;1257;68084;-38
2024/04/08 05:35:48;;;;;;;12.80;8.70;;;;;;;11.48;73.27;100092.45;107246;1257;72800;-37
2024/04/08 05:38:15;;;;;;;15.50;8.20;;;;;;;11.51;73.19;100092.44;107246;1258;61209;-38
2024/04/08 05:40:43;;;;;;;14.40;8.00;;;;;;;11.54;73.21;100094.69;107218;1257;61410;-37
2024/04/08 05:43:14;;;;;;;13.00;7.70;;;;;;;11.66;73.11;100098.73;107266;1258;74792;-37
2024/04/08 05:45:42;;;;;;;12.80;7.80;;;;;;;11.80;72.98;100100.52;107169;1257;67095;-37
2024/04/08 05:48:09;;;;;;;13.70;7.30;;;;;;;11.85;72.72;100096.46;107237;1257;71414;-37
2024/04/08 05:50:37;;;;;;;10.70;7.10;;;;;;;11.86;72.82;100099.05;107238;1257;61324;-37
2024/04/08 05:53:04;;;;;;;12.00;7.10;;;;;;;11.89;73.03;100095.25;107286;1257;60403;-38
2024/04/08 05:55:32;;;;;;;16.90;6.90;;;;;;;11.94;72.95;100102.81;107307;1257;74660;-38
2024/04/08 05:57:59;;;;;;;20.80;6.70;;;;;;;11.99;72.68;100103.10;107386;1258;66442;-38
2024/04/08 06:00:27;;;;;;;12.60;5.90;;;;;;;12.10;72.20;100100.02;107225;1257;71977;-38
2024/04/08 06:02:55;;;;;;;10.50;6.10;;;;;;;12.17;71.55;100103.63;107252;1257;61317;-38
2024/04/08 06:05:24;;;;;;;12.40;6.40;;;;;;;12.19;71.75;100099.80;107236;1257;59357;-38
2024/04/08 06:07:53;;;;;;;9.30;5.80;;;;;;;12.25;71.72;100101.71;107247;1257;74690;-38
2024/04/08 06:10:21;;;;;;;14.80;6.50;;;;;;;12.29;71.35;100107.63;107214;1256;68025;-38
2024/04/08 06:12:49;;;;;;;12.30;7.10;;;;;;;12.31;71.40;100108.08;107261;1257;72739;-38
2024/04/08 06:15:16;;;;;;;12.20;6.20;;;;;;;12.37;70.96;100104.41;107230;1258;61882;-38
2024/04/08 06:17:44;;;;;;;11.70;6.60;;;;;;;12.47;70.68;100105.59;107193;1257;61147;-38
2024/04/08 06:20:12;;;;;;;14.60;6.60;;;;;;;12.55;70.14;100111.73;107298;1257;74678;-38
2024/04/08 06:22:39;;;;;;;12.90;6.80;;;;;;;12.60;70.27;100114.34;107305;1257;67731;-38
2024/04/08 06:25:07;;;;;;;15.10;7.60;;;;;;;12.67;70.22;100118.38;107228;1257;71446;-38
2024/04/08 06:27:35;;;;;;;17.70;7.90;;;;;;;12.75;70.15;100116.00;107251;1258;61869;-38
2024/04/08 06:30:04;;;;;;;14.80;7.50;;;;;;;12.80;69.96;100115.40;107337;1257;60249;-38
2024/04/08 06:32:32;;;;;;;12.80;7.30;;;;;;;12.86;70.01;100110.33;107293;1257;74610;-38
2024/04/08 06:34:59;;;;;;;13.40;7.20;;;;;;;13.00;69.82;100118.09;107273;1257;68089;-38
2024/04/08 06:37:27;;;;;;;13.30;7.90;;;;;;;13.10;70.04;100123.52;107279;1258;71462;-39
2024/04/08 06:39:54;;;;;;;14.20;7.50;;;;;;;13.18;70.00;100122.55;107255;1257;61269;-39
2024/04/08 06:42:23;;;;;;;14.10;7.40;;;;;;;13.29;70.04;100125.57;107235;1257;61317;-39
2024/04/08 06:44:51;;;;;;;12.50;7.30;;;;;;;13.42;69.47;100128.16;107250;1257;73827;-38
2024/04/08 06:47:24;;;;;;;14.40;7.50;;;;;;;13.54;69.07;100129.42;107228;1257;67043;-38
2024/04/08 06:49:51;;;;;;;12.00;6.60;;;;;;;13.68;68.68;100128.73;107275;1257;71444;-38
2024/04/08 06:52:19;;;;;;;12.10;6.20;;;;;;;13.88;68.47;100130.27;107248;1257;61762;-38
2024/04/08 06:54:47;;;;;;;11.10;5.90;;;;;;;14.13;68.08;100131.56;107255;1257;61113;-38
2024/04/08 06:57:14;;;;;;;11.40;5.30;;;;;;;14.33;66.69;100128.31;107265;1256;74814;-38
2024/04/08 06:59:42;;;;;;;9.10;5.60;;;;;;;14.52;66.07;100126.61;107266;1256;67771;-38
2024/04/08 07:02:09;;;;;;;9.50;5.20;;;;;;;14.72;65.58;100124.89;107318;1258;71787;-38
2024/04/08 07:04:36;;;;;;;7.50;4.60;;;;;;;14.92;64.83;100125.55;107320;1258;61087;-38
2024/04/08 07:07:04;;;;;;;8.50;4.90;;;;;;;15.09;63.38;100123.11;107246;1257;60119;-38
2024/04/08 07:09:31;;;;;;;11.20;5.00;;;;;;;15.26;62.39;100122.77;107290;1257;74752;-38
2024/04/08 07:11:59;;;;;;;10.00;4.90;;;;;;;15.42;62.24;100121.88;107264;1257;66866;-38
2024/04/08 07:14:27;;;;;;;10.50;4.70;;;;;;;15.60;61.54;100117.35;107222;1257;71782;-38
2024/04/08 07:16:54;;;;;;;10.90;5.10;;;;;;;15.76;60.73;100114.69;107216;1256;61125;-38
2024/04/08 07:19:22;;;;;;;9.40;5.40;;;;;;;15.90;60.06;100114.36;107229;1257;61130;-38
2024/04/08 07:21:49;;;;;;;9.20;4.80;;;;;;;16.04;60.04;100113.08;107144;1261;74700;-38
2024/04/08 07:24:20;;;;;;;9.50;4.50;;;;;;;16.21;58.97;100111.04;107226;1261;68200;-38
2024/04/08 07:26:48;;;;;;;12.10;5.00;;;;;;;16.34;58.04;100110.67;107217;1260;72693;-38
2024/04/08 07:29:16;;;;;;;8.50;4.70;;;;;;;16.48;58.46;100108.59;107282;1257;61164;-38
2024/04/08 07:31:43;;;;;;;11.50;4.70;;;;;;;16.66;58.15;100110.69;107234;1263;60430;-38
2024/04/08 07:34:11;;;;;;;11.80;4.20;;;;;;;16.84;56.78;100110.41;107291;1257;74708;-38
2024/04/08 07:36:39;;;;;;;7.30;3.50;;;;;;;17.01;55.34;100113.47;107229;1256;67712;-38
2024/04/08 07:39:07;;;;;;;10.60;4.20;;;;;;;17.16;54.07;100112.20;107247;1257;72746;-38
2024/04/08 07:41:39;;;;;;;11.90;4.00;;;;;;;17.29;54.66;100109.73;107273;1261;61113;-38
2024/04/08 07:44:07;;;;;;;8.00;3.90;;;;;;;17.43;54.04;100107.30;107204;1258;60442;-38
2024/04/08 07:46:35;;;;;;;8.20;3.80;;;;;;;17.58;54.23;100107.10;107270;1258;74933;-39
2024/04/08 07:49:03;;;;;;;9.80;3.60;;;;;;;17.71;54.15;100102.91;107307;1260;68016;-39
2024/04/08 07:51:30;;;;;;;8.70;3.40;;;;;;;17.86;52.72;100104.59;107252;1258;72755;-39
2024/04/08 07:53:58;;;;;;;7.00;3.50;;;;;;;17.98;52.26;100102.02;107287;1257;61305;-38
2024/04/08 07:56:25;;;;;;;9.30;4.00;;;;;;;18.10;52.16;100098.41;107255;1257;61395;-38
2024/04/08 07:58:53;;;;;;;6.60;3.80;;;;;;;18.23;51.92;100102.48;107335;1257;74027;-39
2024/04/08 08:01:20;;;;;;;10.30;4.00;;;;;;;18.38;52.07;100100.98;107314;1257;67705;-38
2024/04/08 08:03:48;;;;;;;7.80;3.70;;;;;;;18.54;51.10;100104.13;107224;1261;73175;-39
2024/04/08 08:06:16;;;;;;;9.10;3.90;;;;;;;18.69;50.70;100103.09;107269;1257;61198;-39
2024/04/08 08:08:44;;;;;;;7.60;3.90;;;;;;;18.85;50.87;100108.08;107257;1256;61131;-39
2024/04/08 08:11:12;;;;;;;6.70;3.10;;;;;;;18.99;50.58;100109.13;107174;1257;74753;-39
2024/04/08 08:13:39;;;;;;;6.70;3.30;;;;;;;19.13;49.41;100110.97;107198;1257;65831;-39
2024/04/08 08:16:07;;;;;;;6.90;3.70;;;;;;;19.27;49.49;100108.55;107217;1263;72033;-39
2024/04/08 08:18:34;;;;;;;8.00;3.40;;;;;;;19.41;48.69;100107.39;107202;1257;61276;-38
2024/04/08 08:21:05;;;;;;;7.00;3.10;;;;;;;19.53;47.88;100114.18;107293;1258;61119;-39
2024/04/08 08:23:32;;;;;;;7.00;3.30;;;;;;;19.65;47.47;100114.60;107306;1257;74714;-39
2024/04/08 08:26:00;;;;;;;7.00;3.20;;;;;;;19.76;47.48;100114.52;107286;1260;67748;-39
2024/04/08 08:28:28;;;;;;;8.50;2.90;;;;;;;19.88;47.48;100111.45;107324;1258;72793;-39
2024/04/08 08:30:55;;;;;;;7.50;2.70;;;;;;;20.03;46.77;100110.80;107274;1263;61115;-39
2024/04/08 08:33:23;;;;;;;7.00;2.70;;;;;;;20.17;45.59;100107.70;107292;1256;61212;-39
2024/04/08 08:35:51;;;;;;;4.50;2.40;;;;;;;20.29;45.25;100103.67;107254;1257;74749;-39
2024/04/08 08:38:19;;;;;;;7.20;2.40;;;;;;;20.41;44.43;100098.55;107229;1257;68010;-39
2024/04/08 08:40:50;;;;;;;8.20;2.30;;;;;;;20.52;44.84;100098.13;107296;1258;72742;-39
2024/04/08 08:43:18;;;;;;;5.40;2.40;;;;;;;20.66;44.29;100092.32;107287;1256;61378;-39
2024/04/08 08:45:47;;;;;;;5.20;2.10;;;;;;;20.79;42.47;100090.61;107232;1258;61131;-39
2024/04/08 08:48:15;;;;;;;4.60;2.20;;;;;;;20.91;42.95;100085.04;107294;1257;73489;-39
2024/04/08 08:50:42;;;;;;;4.10;1.70;;;;;;;21.04;42.66;100080.30;107244;1260;66498;-39
2024/04/08 08:53:10;;;;;;;5.50;2.00;;;;;;;21.17;41.35;100077.33;107260;1260;71489;-39
2024/04/08 08:55:37;;;;;;;5.20;2.20;;;;;;;21.31;40.37;100077.16;107263;1260;61250;-39
2024/04/08 08:58:06;;;;;;;5.70;1.70;;;;;;;21.41;39.69;100079.55;107304;1258;61235;-39
2024/04/08 09:00:38;;;;;;;4.80;1.80;;;;;;;21.44;38.78;100079.98;107228;1258;74758;-39
2024/04/08 09:03:09;;;;;;;3.30;1.70;;;;;;;21.47;39.12;100076.95;107285;1257;67750;-39
2024/04/08 09:05:37;;;;;;;7.20;2.00;;;;;;;21.55;39.52;100072.88;107297;1257;72793;-39
2024/04/08 09:08:05;;;;;;;5.10;2.10;;;;;;;21.65;39.54;100067.61;107249;1257;61228;-39
2024/04/08 09:10:43;;;;;;;3.80;1.90;;;;;;;21.76;38.70;100064.77;107264;1259;61214;-39
2024/04/08 09:13:20;;;;;;;5.80;2.00;;;;;;;21.82;38.86;100064.27;107345;1263;73440;-39
2024/04/08 09:15:48;;;;;;;5.00;2.00;;;;;;;21.94;39.17;100062.21;107298;1256;68356;-39
2024/04/08 09:18:16;;;;;;;6.50;2.40;;;;;;;22.11;38.37;100064.70;107174;1257;71444;-39
2024/04/08 09:20:44;;;;;;;5.10;1.90;;;;;;;22.23;37.99;100057.87;107285;1260;61250;-39
2024/04/08 09:23:12;;;;;;;6.80;1.90;;;;;;;22.36;37.78;100060.88;107229;1257;61257;-39
2024/04/08 09:25:40;;;;;;;2.90;1.40;;;;;;;22.50;37.12;100055.25;107241;1260;74697;-39
2024/04/08 09:28:08;;;;;;;5.30;2.00;;;;;;;22.65;36.97;100047.55;107287;1260;67688;-39
2024/04/08 09:30:35;;;;;;;6.00;2.10;;;;;;;22.79;35.98;100045.95;107253;1257;71800;-39
2024/04/08 09:33:05;;;;;;;4.90;1.90;;;;;;;22.89;35.70;100050.65;107275;1258;59685;-39
2024/04/08 09:35:39;;;;;;;5.80;1.80;;;;;;;22.93;36.23;100043.60;107245;1256;61106;-39
2024/04/08 09:38:08;;;;;;;5.50;2.00;;;;;;;23.03;35.44;100037.26;107324;1257;73740;-39
2024/04/08 09:40:37;;;;;;;5.70;1.80;;;;;;;23.13;34.93;100038.92;107290;1258;68058;-39
2024/04/08 09:43:05;;;;;;;5.30;2.00;;;;;;;23.21;34.61;100030.86;107259;1261;72727;-39
2024/04/08 09:45:35;;;;;;;4.50;1.80;;;;;;;23.27;34.60;100029.68;107292;1260;61282;-39
2024/04/08 09:48:03;;;;;;;6.50;2.00;;;;;;;23.36;34.85;100033.92;107243;1257;61600;-39
2024/04/08 09:50:33;;;;;;;7.70;2.50;;;;;;;23.46;34.62;100034.27;107309;1259;73505;-39
2024/04/08 09:53:02;;;;;;;3.20;1.50;;;;;;;23.60;34.52;100039.79;107136;1260;68061;-39
2024/04/08 09:55:31;;;;;;;4.90;1.80;;;;;;;23.73;34.19;100039.08;107338;1260;71415;-39
2024/04/08 09:58:00;;;;;;;4.40;1.70;;;;;;;23.84;34.24;100036.21;107066;1257;61238;-39
2024/04/08 10:00:30;;;;;;;6.00;1.90;;;;;;;23.99;34.38;100031.59;107337;1260;61179;-39
2024/04/08 10:03:05;;;;;;;6.40;2.20;;;;;;;24.16;34.53;100032.65;107357;1259;74725;-39
2024/04/08 10:05:32;;;;;;;6.00;2.30;;;;;;;24.28;34.51;100028.88;107323;1260;68031;-39
2024/04/08 10:08:00;;;;;;;8.30;2.50;;;;;;;24.41;34.42;100023.91;107261;1260;72863;-39
2024/04/08 10:10:33;;;;;;;5.90;2.10;;;;;;;24.52;33.93;100021.34;107273;1257;60420;-39
2024/04/08 10:13:00;;;;;;;7.20;2.40;;;;;;;24.55;33.87;100016.02;107235;1258;60090;-39
2024/04/08 10:15:32;;;;;;;5.20;2.00;;;;;;;24.64;33.83;100018.68;107283;1258;73451;-39
2024/04/08 10:18:00;;;;;;;6.00;2.20;;;;;;;24.76;33.86;100013.36;107259;1257;66773;-39
2024/04/08 10:20:27;;;;;;;6.90;2.30;;;;;;;24.86;33.26;100008.96;107272;1257;72748;-39
2024/04/08 10:22:56;;;;;;;5.30;2.30;;;;;;;24.96;33.25;100006.56;107228;1258;61036;-39
2024/04/08 10:25:48;;;;;;;4.10;2.10;;;;;;;25.18;33.38;100003.83;107154;1257;61237;-39
2024/04/08 10:28:19;;;;;;;6.90;2.30;;;;;;;25.44;33.02;99996.44;107322;1255;74744;-39
2024/04/08 10:30:47;;;;;;;6.20;2.00;;;;;;;25.57;32.57;99993.38;107182;1258;67047;-39
2024/04/08 10:33:14;;;;;;;5.20;2.10;;;;;;;25.53;32.42;99992.19;107163;1260;71454;-39
2024/04/08 10:35:42;;;;;;;3.90;1.60;;;;;;;25.55;32.93;99991.59;107248;1256;61276;-39
2024/04/08 10:38:11;;;;;;;5.70;1.90;;;;;;;25.61;32.16;99977.05;107271;1261;61200;-38
2024/04/08 10:40:40;;;;;;;7.30;1.70;;;;;;;25.70;31.47;99974.95;107197;1258;74759;-38
2024/04/08 10:43:07;;;;;;;6.60;1.90;;;;;;;25.64;31.02;99978.13;107208;1257;67359;-38
2024/04/08 10:45:34;;;;;;;3.50;1.70;;;;;;;25.53;31.17;99977.52;107262;1257;71877;-39
2024/04/08 10:48:03;;;;;;;5.70;2.00;;;;;;;25.46;30.90;99972.01;107265;1261;61276;-39
2024/04/08 10:50:34;;;;;;;4.80;2.00;;;;;;;25.48;31.32;99966.23;107239;1258;61256;-39
2024/04/08 10:53:02;;;;;;;4.80;1.70;;;;;;;25.56;31.09;99961.99;107236;1257;73592;-39
2024/04/08 10:55:30;;;;;;;4.10;1.80;;;;;;;25.68;30.90;99958.88;107225;1260;68060;-39
2024/04/08 10:57:59;;;;;;;3.60;1.60;;;;;;;25.89;30.47;99960.08;107290;1258;72698;-39
2024/04/08 11:00:26;;;;;;;3.10;1.50;;;;;;;26.05;30.68;99958.64;107240;1256;61151;-39
2024/04/08 11:02:54;;;;;;;3.90;1.50;;;;;;;26.14;30.24;99956.02;107270;1257;61285;-39
2024/04/08 11:05:22;;;;;;;4.50;1.80;;;;;;;26.23;30.19;99949.77;107271;1257;74626;-39
2024/04/08 11:07:50;;;;;;;5.00;1.90;;;;;;;26.32;28.93;99948.41;107273;1257;67778;-39
2024/04/08 11:10:18;;;;;;;3.90;1.60;;;;;;;26.27;28.50;99949.77;107292;1256;72737;-39
2024/04/08 11:12:45;;;;;;;3.90;1.60;;;;;;;26.18;28.23;99941.25;107312;1258;61183;-38
2024/04/08 11:15:13;;;;;;;4.70;1.50;;;;;;;26.16;28.55;99940.95;107265;1261;61193;-38
2024/04/08 11:17:41;;;;;;;2.80;1.60;;;;;;;26.18;28.39;99943.58;107333;1257;74964;-38
2024/04/08 11:20:13;;;;;;;;;;;;;;;26.21;28.59;99934.76;107273;1258;66010;-38